Temp: 12.5°C   Baro: 1031.4mb
  Wind: 8.1mph   Dir: NE (56°)
  Rain: 0.0mm (0.0mm/hr)
  Solar: 0W/m2  Hum: 82%
 
Bath Spa Weather Historical Data
 
Daily Summary for October 21, 2018 Units:  Metric    English   Both
Next Day »
Daily Weekly Monthly Yearly Custom
  Current: High: Low: Average:
Temperature: 12.5 °C 17.2 °C 6.2 °C 11.5 °C
Dew Point: 9.5 °C 13.3 °C 5.5 °C 9.6 °C
Humidity: 82% 96% 78% 89%
Wind Speed: 13.0km/h 17.7km/h 0.0km/h 3.4km/h
Wind Gust: 17.7km/h 24.1km/h - -
Wind directionNorth - - SW
Pressure: 1031.0 hPa 1031.0 hPa 1026.6 hPa -
Precipitation: 0.0 mm      
Historical Graphs
 
 
Tabular Data for October 21, 2018
Time Temperature Dew Point Pressure Wind direction Wind Speed Wind Gust Humidity Rainfall Rate (Hourly) solar
00:01 9.3 °C 8.2 °C 1030.0 hPa Calm     93% 0.0 mm 0.00 W/m2
00:06 9.3 °C 8.2 °C 1030.0 hPa Calm     93% 0.0 mm 0.00 W/m2
00:11 9.2 °C 8.1 °C 1030.0 hPa Calm     93% 0.0 mm 0.00 W/m2
00:16 9.1 °C 8.0 °C 1030.0 hPa Calm     93% 0.0 mm 0.00 W/m2
00:21 9.0 °C 7.9 °C 1030.0 hPa Calm     93% 0.0 mm 0.00 W/m2
00:26 8.9 °C 7.8 °C 1030.0 hPa Calm     93% 0.0 mm 0.00 W/m2
00:32 8.9 °C 7.8 °C 1030.0 hPa Calm     93% 0.0 mm 0.00 W/m2
00:37 8.8 °C 7.7 °C 1030.0 hPa Calm     93% 0.0 mm 0.00 W/m2
00:42 8.8 °C 7.7 °C 1030.0 hPa Calm     93% 0.0 mm 0.00 W/m2
00:47 8.8 °C 7.9 °C 1030.0 hPa Calm     94% 0.0 mm 0.00 W/m2
00:52 8.8 °C 7.9 °C 1030.0 hPa Calm     94% 0.0 mm 0.00 W/m2
00:57 8.7 °C 7.8 °C 1030.0 hPa Calm     94% 0.0 mm 0.00 W/m2
01:02 8.7 °C 7.6 °C 1030.0 hPa Calm     93% 0.0 mm 0.00 W/m2
01:07 8.5 °C 7.4 °C 1029.7 hPa Calm     93% 0.0 mm 0.00 W/m2
01:12 8.5 °C 7.6 °C 1029.7 hPa Calm     94% 0.0 mm 0.00 W/m2
01:17 8.7 °C 7.8 °C 1029.7 hPa Calm   1.6 km/h 94% 0.0 mm 0.00 W/m2
01:22 8.7 °C 7.8 °C 1029.7 hPa Calm     94% 0.0 mm 0.00 W/m2
01:27 8.5 °C 7.6 °C 1029.7 hPa Calm     94% 0.0 mm 0.00 W/m2
01:32 8.5 °C 7.6 °C 1029.7 hPa Calm     94% 0.0 mm 0.00 W/m2
01:37 8.4 °C 7.5 °C 1029.7 hPa Calm     94% 0.0 mm 0.00 W/m2
01:42 8.4 °C 7.5 °C 1029.7 hPa Calm     94% 0.0 mm 0.00 W/m2
01:47 8.4 °C 7.5 °C 1029.7 hPa Calm     94% 0.0 mm 0.00 W/m2
01:52 8.3 °C 7.4 °C 1029.3 hPa Calm     94% 0.0 mm 0.00 W/m2
01:57 8.2 °C 7.3 °C 1029.3 hPa Calm     94% 0.0 mm 0.00 W/m2
02:02 8.1 °C 7.2 °C 1029.3 hPa Calm     94% 0.0 mm 0.00 W/m2
02:07 8.1 °C 7.2 °C 1029.3 hPa Calm     94% 0.0 mm 0.00 W/m2
02:12 8.1 °C 7.2 °C 1029.3 hPa Calm     94% 0.0 mm 0.00 W/m2
02:17 8.1 °C 7.2 °C 1029.3 hPa Calm     94% 0.0 mm 0.00 W/m2
02:22 8.0 °C 7.1 °C 1029.3 hPa Calm     94% 0.0 mm 0.00 W/m2
02:27 8.0 °C 7.1 °C 1029.3 hPa Calm     94% 0.0 mm 0.00 W/m2
02:32 7.9 °C 7.0 °C 1029.3 hPa Calm     94% 0.0 mm 0.00 W/m2
02:37 7.9 °C 7.0 °C 1029.3 hPa Calm     94% 0.0 mm 0.00 W/m2
02:42 7.9 °C 7.0 °C 1029.3 hPa Calm     94% 0.0 mm 0.00 W/m2
02:47 7.8 °C 6.9 °C 1029.3 hPa Calm     94% 0.0 mm 0.00 W/m2
02:52 7.8 °C 6.9 °C 1029.3 hPa Calm     94% 0.0 mm 0.00 W/m2
02:57 7.7 °C 6.8 °C 1029.3 hPa Calm     94% 0.0 mm 0.00 W/m2
03:02 7.7 °C 6.8 °C 1029.3 hPa Calm     94% 0.0 mm 0.00 W/m2
03:07 7.6 °C 6.7 °C 1029.3 hPa Calm     94% 0.0 mm 0.00 W/m2
03:12 7.7 °C 6.8 °C 1029.3 hPa Calm     94% 0.0 mm 0.00 W/m2
03:17 7.6 °C 6.7 °C 1029.0 hPa Calm     94% 0.0 mm 0.00 W/m2
03:22 7.5 °C 6.6 °C 1029.0 hPa Calm     94% 0.0 mm 0.00 W/m2
03:27 7.5 °C 6.6 °C 1029.0 hPa Calm     94% 0.0 mm 0.00 W/m2
03:32 7.4 °C 6.5 °C 1029.0 hPa Calm     94% 0.0 mm 0.00 W/m2
03:37 7.4 °C 6.5 °C 1028.7 hPa Calm     94% 0.0 mm 0.00 W/m2
03:42 7.4 °C 6.5 °C 1028.7 hPa Calm     94% 0.0 mm 0.00 W/m2
03:47 7.4 °C 6.5 °C 1028.7 hPa Calm     94% 0.0 mm 0.00 W/m2
03:52 7.4 °C 6.5 °C 1028.7 hPa Calm     94% 0.0 mm 0.00 W/m2
03:57 7.3 °C 6.4 °C 1028.7 hPa Calm     94% 0.0 mm 0.00 W/m2
04:03 7.3 °C 6.4 °C 1028.7 hPa Calm     94% 0.0 mm 0.00 W/m2
04:08 7.2 °C 6.3 °C 1028.3 hPa Calm     94% 0.0 mm 0.00 W/m2
04:13 7.2 °C 6.3 °C 1028.7 hPa Calm     94% 0.0 mm 0.00 W/m2
04:18 7.2 °C 6.3 °C 1028.7 hPa Calm     94% 0.0 mm 0.00 W/m2
04:23 7.1 °C 6.2 °C 1028.7 hPa Calm     94% 0.0 mm 0.00 W/m2
04:28 7.1 °C 6.2 °C 1028.3 hPa Calm     94% 0.0 mm 0.00 W/m2
04:33 7.0 °C 6.1 °C 1028.7 hPa Calm     94% 0.0 mm 0.00 W/m2
04:38 7.0 °C 6.1 °C 1028.3 hPa Calm     94% 0.0 mm 0.00 W/m2
04:43 7.0 °C 6.1 °C 1028.3 hPa Calm   1.6 km/h 94% 0.0 mm 0.00 W/m2
04:48 6.9 °C 6.0 °C 1028.3 hPa Calm     94% 0.0 mm 0.00 W/m2
04:53 6.9 °C 6.0 °C 1028.3 hPa Calm     94% 0.0 mm 0.00 W/m2
04:58 6.9 °C 6.0 °C 1028.3 hPa Calm     94% 0.0 mm 0.00 W/m2
05:03 6.9 °C 6.0 °C 1028.3 hPa Calm     94% 0.0 mm 0.00 W/m2
05:08 6.8 °C 6.1 °C 1028.3 hPa Calm     95% 0.0 mm 0.00 W/m2
05:13 6.8 °C 6.1 °C 1028.3 hPa Calm     95% 0.0 mm 0.00 W/m2
05:18 6.8 °C 6.1 °C 1028.3 hPa Calm     95% 0.0 mm 0.00 W/m2
05:23 6.8 °C 6.1 °C 1028.3 hPa Calm     95% 0.0 mm 0.00 W/m2
05:28 6.7 °C 5.8 °C 1028.3 hPa Calm     94% 0.0 mm 0.00 W/m2
05:33 6.7 °C 5.8 °C 1028.3 hPa Calm     94% 0.0 mm 0.00 W/m2
05:38 6.7 °C 5.8 °C 1028.3 hPa Calm     94% 0.0 mm 0.00 W/m2
05:43 6.7 °C 5.8 °C 1028.3 hPa Calm     94% 0.0 mm 0.00 W/m2
05:48 6.6 °C 5.9 °C 1028.0 hPa Calm     95% 0.0 mm 0.00 W/m2
05:53 6.5 °C 5.8 °C 1028.3 hPa Calm     95% 0.0 mm 0.00 W/m2
05:58 6.5 °C 5.8 °C 1028.3 hPa Calm     95% 0.0 mm 0.00 W/m2
06:03 6.5 °C 5.8 °C 1028.3 hPa Calm     95% 0.0 mm 0.00 W/m2
06:08 6.4 °C 5.7 °C 1028.0 hPa Calm     95% 0.0 mm 0.00 W/m2
06:13 6.4 °C 5.7 °C 1028.0 hPa Calm     95% 0.0 mm 0.00 W/m2
06:18 6.4 °C 5.7 °C 1028.3 hPa Calm     95% 0.0 mm 0.00 W/m2
06:23 6.3 °C 5.6 °C 1028.3 hPa Calm     95% 0.0 mm 0.00 W/m2
06:28 6.3 °C 5.6 °C 1028.0 hPa Calm     95% 0.0 mm 0.00 W/m2
06:33 6.3 °C 5.6 °C 1028.3 hPa Calm     95% 0.0 mm 0.00 W/m2
06:38 6.4 °C 5.7 °C 1028.3 hPa Calm     95% 0.0 mm 0.00 W/m2
06:43 6.3 °C 5.6 °C 1028.3 hPa Calm     95% 0.0 mm 0.00 W/m2
06:48 6.3 °C 5.6 °C 1028.0 hPa Calm     95% 0.0 mm 0.00 W/m2
06:53 6.2 °C 5.5 °C 1028.3 hPa Calm   1.6 km/h 95% 0.0 mm 0.00 W/m2
06:58 6.2 °C 5.5 °C 1028.3 hPa Calm     95% 0.0 mm 0.00 W/m2
07:03 6.2 °C 5.5 °C 1028.3 hPa Calm     95% 0.0 mm 0.00 W/m2
07:08 6.2 °C 5.5 °C 1028.3 hPa Calm     95% 0.0 mm 0.00 W/m2
07:13 6.2 °C 5.5 °C 1028.3 hPa Calm     95% 0.0 mm 0.00 W/m2
07:18 6.2 °C 5.5 °C 1028.3 hPa Calm     95% 0.0 mm 0.00 W/m2
07:23 6.2 °C 5.5 °C 1028.3 hPa Calm     95% 0.0 mm 0.00 W/m2
07:28 6.2 °C 5.5 °C 1028.3 hPa Calm     95% 0.0 mm 0.00 W/m2
07:33 6.4 °C 5.7 °C 1028.3 hPa Calm     95% 0.0 mm 0.00 W/m2
07:38 6.5 °C 5.8 °C 1028.0 hPa Calm     95% 0.0 mm 0.00 W/m2
07:43 6.5 °C 5.8 °C 1028.3 hPa Calm     95% 0.0 mm 0.00 W/m2
07:48 6.5 °C 5.8 °C 1028.3 hPa Calm     95% 0.0 mm 5.00 W/m2
07:53 6.5 °C 5.8 °C 1028.3 hPa Calm     95% 0.0 mm 7.00 W/m2
07:58 6.6 °C 5.9 °C 1028.3 hPa Calm     95% 0.0 mm 9.00 W/m2
08:03 6.7 °C 6.0 °C 1028.3 hPa Calm     95% 0.0 mm 9.00 W/m2
08:08 6.7 °C 6.0 °C 1028.3 hPa Calm     95% 0.0 mm 11.00 W/m2
08:13 6.8 °C 6.1 °C 1028.3 hPa Calm     95% 0.0 mm 12.00 W/m2
08:18 6.8 °C 6.1 °C 1028.3 hPa Calm     95% 0.0 mm 19.00 W/m2
08:23 6.9 °C 6.2 °C 1028.3 hPa Calm     95% 0.0 mm 25.00 W/m2
08:28 7.1 °C 6.4 °C 1028.3 hPa Calm     95% 0.0 mm 30.00 W/m2
08:33 7.1 °C 6.4 °C 1028.3 hPa Calm     95% 0.0 mm 33.00 W/m2
08:39 7.2 °C 6.5 °C 1028.3 hPa Calm     95% 0.0 mm 40.00 W/m2
08:44 7.2 °C 6.5 °C 1028.3 hPa Calm     95% 0.0 mm 42.00 W/m2
08:49 7.5 °C 6.9 °C 1028.7 hPa Calm     96% 0.0 mm 49.00 W/m2
08:54 7.4 °C 6.8 °C 1028.3 hPa Calm     96% 0.0 mm 56.00 W/m2
08:59 7.3 °C 6.7 °C 1028.3 hPa Calm     96% 0.0 mm 70.00 W/m2
09:04 7.6 °C 7.0 °C 1028.3 hPa Calm     96% 0.0 mm 74.00 W/m2
09:09 7.8 °C 7.2 °C 1028.3 hPa Calm     96% 0.0 mm 70.00 W/m2
09:14 8.1 °C 7.5 °C 1028.3 hPa Calm     96% 0.0 mm 60.00 W/m2
09:19 8.0 °C 7.4 °C 1028.3 hPa Calm   1.6 km/h 96% 0.0 mm 86.00 W/m2
09:24 7.7 °C 7.1 °C 1028.3 hPa Calm     96% 0.0 mm 70.00 W/m2
09:29 7.9 °C 7.3 °C 1028.7 hPa Calm   1.6 km/h 96% 0.0 mm 109.00 W/m2
09:34 8.2 °C 7.6 °C 1028.7 hPa Calm     96% 0.0 mm 116.00 W/m2
09:39 8.4 °C 7.8 °C 1028.3 hPa Calm     96% 0.0 mm 121.00 W/m2
09:44 8.8 °C 8.2 °C 1028.7 hPa Calm     96% 0.0 mm 135.00 W/m2
09:49 9.5 °C 8.9 °C 1028.7 hPa Calm     96% 0.0 mm 144.00 W/m2
09:54 9.7 °C 9.1 °C 1028.7 hPa Calm     96% 0.0 mm 160.00 W/m2
09:59 10.0 °C 9.2 °C 1028.7 hPa Calm     95% 0.0 mm 174.00 W/m2
10:04 10.2 °C 9.4 °C 1028.7 hPa Calm     95% 0.0 mm 185.00 W/m2
10:09 10.4 °C 9.5 °C 1028.7 hPa Calm     94% 0.0 mm 197.00 W/m2
10:14 10.7 °C 9.6 °C 1028.7 hPa Calm     93% 0.0 mm 207.00 W/m2
10:19 11.7 °C 10.6 °C 1028.3 hPa Calm     93% 0.0 mm 218.00 W/m2
10:24 12.1 °C 10.8 °C 1028.3 hPa Calm     92% 0.0 mm 229.00 W/m2
10:29 12.4 °C 10.8 °C 1028.3 hPa Calm     90% 0.0 mm 237.00 W/m2
10:34 12.4 °C 10.8 °C 1028.3 hPa Calm   3.2 km/h 90% 0.0 mm 250.00 W/m2
10:39 12.8 °C 11.2 °C 1028.3 hPa West 3.2 km/h 4.8 km/h 90% 0.0 mm 260.00 W/m2
10:44 12.9 °C 11.3 °C 1028.3 hPa West 1.4 km/h 4.8 km/h 90% 0.0 mm 272.00 W/m2
10:49 13.3 °C 11.7 °C 1028.3 hPa West 1.4 km/h 4.8 km/h 90% 0.0 mm 281.00 W/m2
10:54 13.3 °C 11.7 °C 1028.3 hPa West 3.2 km/h 8.0 km/h 90% 0.0 mm 294.00 W/m2
10:59 13.7 °C 11.9 °C 1028.3 hPa West 6.4 km/h 8.0 km/h 89% 0.0 mm 308.00 W/m2
11:04 13.9 °C 12.1 °C 1028.3 hPa West 4.7 km/h 14.5 km/h 89% 0.0 mm 343.00 W/m2
11:09 13.9 °C 11.9 °C 1028.3 hPa West 7.9 km/h 16.1 km/h 88% 0.0 mm 378.00 W/m2
11:14 13.8 °C 11.8 °C 1028.3 hPa WNW 9.7 km/h 11.3 km/h 88% 0.0 mm 130.00 W/m2
11:19 14.0 °C 12.2 °C 1028.0 hPa WNW 9.7 km/h 16.1 km/h 89% 0.0 mm 336.00 W/m2
11:24 14.2 °C 12.2 °C 1028.0 hPa WNW 1.4 km/h 9.7 km/h 88% 0.0 mm 353.00 W/m2
11:29 14.8 °C 12.7 °C 1028.0 hPa WNW 6.4 km/h 9.7 km/h 87% 0.0 mm 373.00 W/m2
11:34 14.8 °C 12.5 °C 1028.0 hPa WNW 9.7 km/h 14.5 km/h 86% 0.0 mm 381.00 W/m2
11:39 15.0 °C 12.3 °C 1028.0 hPa NW 3.2 km/h 12.9 km/h 84% 0.0 mm 406.00 W/m2
11:44 15.3 °C 12.6 °C 1028.0 hPa NW 4.7 km/h 12.9 km/h 84% 0.0 mm 399.00 W/m2
11:49 15.2 °C 12.5 °C 1028.0 hPa NW 6.4 km/h 11.3 km/h 84% 0.0 mm 408.00 W/m2
11:54 15.2 °C 12.5 °C 1028.0 hPa West 9.7 km/h 16.1 km/h 84% 0.0 mm 417.00 W/m2
11:59 15.1 °C 12.2 °C 1027.7 hPa NW 11.1 km/h 17.7 km/h 83% 0.0 mm 410.00 W/m2
12:04 15.1 °C 12.2 °C 1027.7 hPa WNW 7.9 km/h 19.3 km/h 83% 0.0 mm 410.00 W/m2
12:09 15.3 °C 12.4 °C 1027.7 hPa NW 1.4 km/h 16.1 km/h 83% 0.0 mm 420.00 W/m2
12:14 15.4 °C 12.5 °C 1027.7 hPa West 6.4 km/h 16.1 km/h 83% 0.0 mm 418.00 W/m2
12:19 15.4 °C 12.3 °C 1027.7 hPa NW 6.4 km/h 17.7 km/h 82% 0.0 mm 424.00 W/m2
12:24 15.4 °C 12.3 °C 1027.7 hPa WNW 14.3 km/h 22.5 km/h 82% 0.0 mm 429.00 W/m2
12:29 15.6 °C 12.5 °C 1027.7 hPa WNW 7.9 km/h 17.7 km/h 82% 0.0 mm 427.00 W/m2
12:34 15.5 °C 12.4 °C 1027.7 hPa West 6.4 km/h 14.5 km/h 82% 0.0 mm 434.00 W/m2
12:39 15.7 °C 12.6 °C 1027.7 hPa West 7.9 km/h 12.9 km/h 82% 0.0 mm 439.00 W/m2
12:44 16.0 °C 12.9 °C 1027.7 hPa West 6.4 km/h 9.7 km/h 82% 0.0 mm 439.00 W/m2
12:49 16.0 °C 12.9 °C 1027.7 hPa West 11.1 km/h 11.3 km/h 82% 0.0 mm 434.00 W/m2
12:54 16.1 °C 12.8 °C 1027.7 hPa West 4.7 km/h 16.1 km/h 81% 0.0 mm 443.00 W/m2
12:59 16.2 °C 12.9 °C 1027.3 hPa WNW 7.9 km/h 12.9 km/h 81% 0.0 mm 443.00 W/m2
13:04 16.3 °C 12.8 °C 1027.3 hPa West 6.4 km/h 14.5 km/h 80% 0.0 mm 439.00 W/m2
13:09 16.3 °C 12.8 °C 1027.3 hPa WNW 6.4 km/h 16.1 km/h 80% 0.0 mm 438.00 W/m2
13:14 16.4 °C 13.1 °C 1027.3 hPa WSW 6.4 km/h 12.9 km/h 81% 0.0 mm 436.00 W/m2
13:19 16.4 °C 12.9 °C 1027.3 hPa WSW 7.9 km/h 16.1 km/h 80% 0.0 mm 439.00 W/m2
13:24 16.6 °C 13.1 °C 1027.3 hPa WSW 11.1 km/h 16.1 km/h 80% 0.0 mm 441.00 W/m2
13:29 16.9 °C 13.2 °C 1027.3 hPa West 4.7 km/h 14.5 km/h 79% 0.0 mm 454.00 W/m2
13:34 16.7 °C 13.0 °C 1027.3 hPa West 9.7 km/h 20.9 km/h 79% 0.0 mm 427.00 W/m2
13:39 16.6 °C 13.1 °C 1027.3 hPa West 11.1 km/h 16.1 km/h 80% 0.0 mm 434.00 W/m2
13:44 16.7 °C 13.2 °C 1027.3 hPa WSW 11.1 km/h 16.1 km/h 80% 0.0 mm 438.00 W/m2
13:49 16.7 °C 13.2 °C 1027.3 hPa WNW 13.0 km/h 12.9 km/h 80% 0.0 mm 429.00 W/m2
13:54 16.7 °C 13.0 °C 1027.3 hPa West 13.0 km/h 14.5 km/h 79% 0.0 mm 422.00 W/m2
13:59 16.7 °C 13.2 °C 1027.3 hPa WNW 11.1 km/h 12.9 km/h 80% 0.0 mm 446.00 W/m2
14:04 16.5 °C 13.0 °C 1027.3 hPa WNW 6.4 km/h 14.5 km/h 80% 0.0 mm 429.00 W/m2
14:09 16.7 °C 13.2 °C 1027.3 hPa WSW 11.1 km/h 14.5 km/h 80% 0.0 mm 434.00 W/m2
14:14 16.8 °C 13.1 °C 1027.3 hPa WNW 13.0 km/h 17.7 km/h 79% 0.0 mm 443.00 W/m2
14:19 16.6 °C 13.1 °C 1027.0 hPa WSW 11.1 km/h 16.1 km/h 80% 0.0 mm 408.00 W/m2
14:24 16.6 °C 13.1 °C 1027.0 hPa NW 3.2 km/h 11.3 km/h 80% 0.0 mm 404.00 W/m2
14:29 16.8 °C 13.3 °C 1027.0 hPa WNW 9.7 km/h 12.9 km/h 80% 0.0 mm 394.00 W/m2
14:34 16.7 °C 13.2 °C 1027.0 hPa West 11.1 km/h 17.7 km/h 80% 0.0 mm 403.00 W/m2
14:39 16.4 °C 12.9 °C 1027.0 hPa WNW 14.3 km/h 20.9 km/h 80% 0.0 mm 396.00 W/m2
14:44 16.4 °C 12.9 °C 1027.0 hPa West 4.7 km/h 11.3 km/h 80% 0.0 mm 408.00 W/m2
14:49 16.8 °C 13.3 °C 1027.0 hPa West 7.9 km/h 11.3 km/h 80% 0.0 mm 381.00 W/m2
14:54 16.8 °C 13.1 °C 1026.6 hPa WNW 3.2 km/h 14.5 km/h 79% 0.0 mm 360.00 W/m2
14:59 16.9 °C 13.2 °C 1027.0 hPa West 16.3 km/h 19.3 km/h 79% 0.0 mm 366.00 W/m2
15:04 16.9 °C 13.2 °C 1027.0 hPa West 11.1 km/h 14.5 km/h 79% 0.0 mm 357.00 W/m2
15:09 17.2 °C 13.3 °C 1027.0 hPa WNW 7.9 km/h 14.5 km/h 78% 0.0 mm 350.00 W/m2
15:14 16.8 °C 12.9 °C 1027.0 hPa SW 7.9 km/h 14.5 km/h 78% 0.0 mm 338.00 W/m2
15:19 16.7 °C 13.0 °C 1027.0 hPa WSW 7.9 km/h 19.3 km/h 79% 0.0 mm 322.00 W/m2
15:24 16.3 °C 12.8 °C 1027.0 hPa West 9.7 km/h 19.3 km/h 80% 0.0 mm 313.00 W/m2
15:29 16.3 °C 13.0 °C 1027.0 hPa West 6.4 km/h 17.7 km/h 81% 0.0 mm 302.00 W/m2
15:34 16.5 °C 13.0 °C 1026.6 hPa WNW 6.4 km/h 12.9 km/h 80% 0.0 mm 292.00 W/m2
15:39 16.7 °C 13.2 °C 1026.6 hPa SW 9.7 km/h 11.3 km/h 80% 0.0 mm 283.00 W/m2
15:44 16.5 °C 12.8 °C 1026.6 hPa West 9.7 km/h 16.1 km/h 79% 0.0 mm 269.00 W/m2
15:50 16.3 °C 12.8 °C 1026.6 hPa WSW 17.7 km/h 17.7 km/h 80% 0.0 mm 255.00 W/m2
15:55 16.2 °C 12.7 °C 1026.6 hPa WSW 11.1 km/h 20.9 km/h 80% 0.0 mm 244.00 W/m2
16:00 16.1 °C 12.6 °C 1026.6 hPa WNW 11.1 km/h 16.1 km/h 80% 0.0 mm 234.00 W/m2
16:05 16.1 °C 12.6 °C 1027.0 hPa WNW 7.9 km/h 16.1 km/h 80% 0.0 mm 216.00 W/m2
16:10 15.9 °C 12.5 °C 1027.0 hPa West 14.3 km/h 16.1 km/h 80% 0.0 mm 213.00 W/m2
16:15 15.9 °C 12.5 °C 1027.0 hPa WSW 9.7 km/h 17.7 km/h 80% 0.0 mm 190.00 W/m2
16:20 16.0 °C 12.6 °C 1026.6 hPa West 11.1 km/h 16.1 km/h 80% 0.0 mm 169.00 W/m2
16:25 15.9 °C 12.5 °C 1026.6 hPa WSW 16.3 km/h 17.7 km/h 80% 0.0 mm 153.00 W/m2
16:30 15.8 °C 12.4 °C 1026.6 hPa WNW 11.1 km/h 14.5 km/h 80% 0.0 mm 158.00 W/m2
16:35 15.7 °C 12.4 °C 1027.0 hPa West 7.9 km/h 11.3 km/h 81% 0.0 mm 151.00 W/m2
16:40 15.8 °C 12.4 °C 1027.0 hPa West 3.2 km/h 16.1 km/h 80% 0.0 mm 130.00 W/m2
16:45 15.7 °C 12.4 °C 1027.0 hPa West 9.7 km/h 16.1 km/h 81% 0.0 mm 146.00 W/m2
16:50 15.4 °C 12.2 °C 1027.3 hPa WNW 11.1 km/h 16.1 km/h 81% 0.0 mm 76.00 W/m2
16:55 15.2 °C 12.1 °C 1027.3 hPa West 17.7 km/h 17.7 km/h 82% 0.0 mm 37.00 W/m2
17:00 14.9 °C 11.9 °C 1027.3 hPa West 9.7 km/h 16.1 km/h 82% 0.0 mm 32.00 W/m2
17:05 14.8 °C 11.9 °C 1027.3 hPa WSW 3.2 km/h 17.7 km/h 83% 0.0 mm 47.00 W/m2
17:10 14.8 °C 11.9 °C 1027.3 hPa West 7.9 km/h 17.7 km/h 83% 0.0 mm 39.00 W/m2
17:15 14.7 °C 11.8 °C 1027.3 hPa WNW 7.9 km/h 12.9 km/h 83% 0.0 mm 33.00 W/m2
17:20 14.7 °C 12.0 °C 1027.3 hPa West 11.1 km/h 16.1 km/h 84% 0.0 mm 44.00 W/m2
17:25 14.6 °C 11.9 °C 1027.3 hPa WNW 4.7 km/h 9.7 km/h 84% 0.0 mm 37.00 W/m2
17:30 14.5 °C 11.8 °C 1027.3 hPa West 9.7 km/h 14.5 km/h 84% 0.0 mm 28.00 W/m2
17:35 14.4 °C 11.9 °C 1027.3 hPa West 3.2 km/h 9.7 km/h 85% 0.0 mm 18.00 W/m2
17:40 14.4 °C 11.9 °C 1027.3 hPa West 1.4 km/h 6.4 km/h 85% 0.0 mm 14.00 W/m2
17:45 14.4 °C 11.9 °C 1027.3 hPa West 1.4 km/h 8.0 km/h 85% 0.0 mm 11.00 W/m2
17:50 14.4 °C 11.9 °C 1027.3 hPa West 6.4 km/h 9.7 km/h 85% 0.0 mm 7.00 W/m2
17:55 14.3 °C 12.0 °C 1027.3 hPa West 1.4 km/h 9.7 km/h 86% 0.0 mm 5.00 W/m2
18:00 14.2 °C 11.9 °C 1027.3 hPa Calm   8.0 km/h 86% 0.0 mm 0.00 W/m2
18:05 14.2 °C 11.9 °C 1027.3 hPa West 3.2 km/h 8.0 km/h 86% 0.0 mm 0.00 W/m2
18:10 14.1 °C 11.8 °C 1027.7 hPa West 1.4 km/h 9.7 km/h 86% 0.0 mm 0.00 W/m2
18:15 14.1 °C 11.8 °C 1027.7 hPa West 4.7 km/h 4.8 km/h 86% 0.0 mm 0.00 W/m2
18:20 14.0 °C 11.9 °C 1027.7 hPa West 4.7 km/h 9.7 km/h 87% 0.0 mm 0.00 W/m2
18:25 13.9 °C 11.8 °C 1027.7 hPa Calm   6.4 km/h 87% 0.0 mm 0.00 W/m2
18:30 13.9 °C 11.8 °C 1028.0 hPa Calm   1.6 km/h 87% 0.0 mm 0.00 W/m2
18:35 13.9 °C 11.8 °C 1028.0 hPa Calm   1.6 km/h 87% 0.0 mm 0.00 W/m2
18:40 13.9 °C 11.9 °C 1028.0 hPa Calm     88% 0.0 mm 0.00 W/m2
18:45 13.9 °C 11.9 °C 1028.0 hPa Calm     88% 0.0 mm 0.00 W/m2
18:50 14.0 °C 12.0 °C 1028.0 hPa Calm     88% 0.0 mm 0.00 W/m2
18:55 14.0 °C 12.0 °C 1028.0 hPa Calm     88% 0.0 mm 0.00 W/m2
19:00 14.0 °C 12.0 °C 1028.3 hPa Calm     88% 0.0 mm 0.00 W/m2
19:05 14.0 °C 12.0 °C 1028.3 hPa Calm     88% 0.0 mm 0.00 W/m2
19:10 14.0 °C 12.0 °C 1028.3 hPa Calm     88% 0.0 mm 0.00 W/m2
19:15 13.9 °C 11.9 °C 1028.3 hPa Calm     88% 0.0 mm 0.00 W/m2
19:20 13.9 °C 11.9 °C 1028.3 hPa Calm     88% 0.0 mm 0.00 W/m2
19:25 13.9 °C 11.9 °C 1028.3 hPa West 1.4 km/h 4.8 km/h 88% 0.0 mm 0.00 W/m2
19:30 13.9 °C 11.9 °C 1028.3 hPa West 1.4 km/h 1.6 km/h 88% 0.0 mm 0.00 W/m2
19:35 13.9 °C 11.9 °C 1028.7 hPa West 1.4 km/h 3.2 km/h 88% 0.0 mm 0.00 W/m2
19:40 14.0 °C 12.0 °C 1028.7 hPa Calm   3.2 km/h 88% 0.0 mm 0.00 W/m2
19:45 14.0 °C 12.2 °C 1028.7 hPa Calm     89% 0.0 mm 0.00 W/m2
19:50 14.0 °C 12.2 °C 1028.7 hPa Calm     89% 0.0 mm 0.00 W/m2
19:55 14.0 °C 12.2 °C 1028.7 hPa Calm   1.6 km/h 89% 0.0 mm 0.00 W/m2
20:00 14.0 °C 12.2 °C 1029.0 hPa Calm   1.6 km/h 89% 0.0 mm 0.00 W/m2
20:05 14.0 °C 12.2 °C 1029.0 hPa Calm   1.6 km/h 89% 0.0 mm 0.00 W/m2
20:10 14.0 °C 12.2 °C 1029.0 hPa Calm   1.6 km/h 89% 0.0 mm 0.00 W/m2
20:15 14.0 °C 12.2 °C 1029.0 hPa Calm     89% 0.0 mm 0.00 W/m2
20:20 14.0 °C 12.2 °C 1029.0 hPa Calm     89% 0.0 mm 0.00 W/m2
20:25 14.1 °C 12.3 °C 1029.3 hPa Calm   1.6 km/h 89% 0.0 mm 0.00 W/m2
20:30 14.2 °C 12.4 °C 1029.3 hPa NNE 11.1 km/h 19.3 km/h 89% 0.0 mm 0.00 W/m2
20:35 14.3 °C 12.3 °C 1029.3 hPa North 3.2 km/h 12.9 km/h 88% 0.0 mm 0.00 W/m2
20:40 14.2 °C 12.2 °C 1029.3 hPa North 9.7 km/h 16.1 km/h 88% 0.0 mm 0.00 W/m2
20:45 14.2 °C 12.2 °C 1029.7 hPa NNW 6.4 km/h 11.3 km/h 88% 0.0 mm 0.00 W/m2
20:50 14.2 °C 12.1 °C 1029.7 hPa North 1.4 km/h 4.8 km/h 87% 0.0 mm 0.00 W/m2
20:55 14.0 °C 12.0 °C 1030.0 hPa NE 9.7 km/h 12.9 km/h 88% 0.0 mm 0.00 W/m2
21:00 13.8 °C 11.7 °C 1030.0 hPa North 7.9 km/h 14.5 km/h 87% 0.0 mm 0.00 W/m2
21:05 13.7 °C 11.6 °C 1030.0 hPa ENE 13.0 km/h 17.7 km/h 87% 0.0 mm 0.00 W/m2
21:10 13.5 °C 11.2 °C 1030.0 hPa NNE 3.2 km/h 6.4 km/h 86% 0.0 mm 0.00 W/m2
21:15 13.4 °C 10.8 °C 1030.0 hPa North 4.7 km/h 14.5 km/h 84% 0.0 mm 0.00 W/m2
21:20 13.3 °C 10.7 °C 1030.0 hPa North 1.4 km/h 8.0 km/h 84% 0.0 mm 0.00 W/m2
21:25 13.3 °C 10.5 °C 1030.0 hPa North 1.4 km/h 17.7 km/h 83% 0.0 mm 0.00 W/m2
21:30 13.3 °C 10.5 °C 1030.0 hPa NE 3.2 km/h 8.0 km/h 83% 0.0 mm 0.00 W/m2
21:36 13.2 °C 10.2 °C 1030.4 hPa NW 7.9 km/h 17.7 km/h 82% 0.0 mm 0.00 W/m2
21:41 13.1 °C 10.1 °C 1030.4 hPa NE 4.7 km/h 17.7 km/h 82% 0.0 mm 0.00 W/m2
21:46 13.1 °C 10.1 °C 1030.4 hPa ENE 16.3 km/h 16.1 km/h 82% 0.0 mm 0.00 W/m2
21:51 13.0 °C 9.8 °C 1030.7 hPa Calm   14.5 km/h 81% 0.0 mm 0.00 W/m2
21:56 13.0 °C 9.8 °C 1030.7 hPa Calm   17.7 km/h 81% 0.0 mm 0.00 W/m2
22:01 12.9 °C 9.7 °C 1030.7 hPa NNE 4.7 km/h 12.9 km/h 81% 0.0 mm 0.00 W/m2
22:06 12.9 °C 9.7 °C 1030.7 hPa North 16.3 km/h 19.3 km/h 81% 0.0 mm 0.00 W/m2
22:11 12.8 °C 9.8 °C 1031.0 hPa NE 11.1 km/h 19.3 km/h 82% 0.0 mm 0.00 W/m2
22:16 12.7 °C 9.7 °C 1031.0 hPa North 13.0 km/h 22.5 km/h 82% 0.0 mm 0.00 W/m2
22:21 12.7 °C 9.7 °C 1031.0 hPa North 9.7 km/h 14.5 km/h 82% 0.0 mm 0.00 W/m2
22:26 12.7 °C 9.7 °C 1031.0 hPa North 6.4 km/h 14.5 km/h 82% 0.0 mm 0.00 W/m2
22:31 12.7 °C 9.7 °C 1031.0 hPa NE 4.7 km/h 17.7 km/h 82% 0.0 mm 0.00 W/m2
22:36 12.6 °C 9.6 °C 1031.0 hPa NE 13.0 km/h 24.1 km/h 82% 0.0 mm 0.00 W/m2
22:41 12.5 °C 9.5 °C 1031.0 hPa North 13.0 km/h 17.7 km/h 82% 0.0 mm 0.00 W/m2